Cleveland, Ohio
Current Conditions -  °F | °C
As of 11:53 PM on Monday 22 Dec 2014 (Local Time) from KBKL Reporting Station
Overcast Overcast  
Wind Chill:   Ceiling: 11000
Heat Index:   Visibility: 10mi
Dew Point: -1°   Wind: 18mph
Humidity: 67%   Direction: 150°SSE
Pressure: 29.86"   Gusts: 24mph
Location:  41.5°N, 81.69°W
Report Text: KBKL 230453Z 15016G21KT 10SM OVC110 05/M01 A2986 RMK AO2 SLP115 T00501006 400721028
Loading
Personal Weather Stations






























Interactive Weather Map New forecast layout! Learn more

10-Day Weather Forecast

Advertisements
Track Severe Weather on mobile